Terminal Aerodrome Forecast
Issued by NWS Jackson, KY

Home | Current Version | Previous Version | Text Only | Print | Product List | Glossary On
Versions: 1 2 3 4 5 6 7 8 9 10 11 12 13 14 15 16
000
FTUS43 KJKL 242339
TAFLOZ
TAF
KLOZ 242339Z 2500/2524 18008KT P6SM VCSH SCT030 OVC150
     FM250100 18009KT P6SM VCSH SCT030 OVC080 WS020/20040KT
     FM250600 20013G22KT P6SM SHRA VCTS SCT030 OVC060CB
     FM251000 22014G23KT P6SM SHRA OVC060
     FM251200 24012G20KT P6SM VCSH OVC025
     FM251400 28010KT P6SM BKN045=

USA.gov is the U.S. government's official web portal to all federal, state and local government web resources and services.